sensor_id;sensor_type;location;lat;lon;timestamp;pressure;altitude;pressure_sealevel;temperature;humidity
50380;BME280;37474;59.468;18.040;2023-01-28T00:00:50;102172.28;;;-4.07;100.00
50380;BME280;37474;59.468;18.040;2023-01-28T00:03:18;102175.28;;;-3.93;100.00
50380;BME280;37474;59.468;18.040;2023-01-28T00:05:47;102169.06;;;-4.03;100.00
50380;BME280;37474;59.468;18.040;2023-01-28T00:08:15;102162.41;;;-3.99;100.00
50380;BME280;37474;59.468;18.040;2023-01-28T00:10:43;102152.22;;;-4.01;100.00
50380;BME280;37474;59.468;18.040;2023-01-28T00:13:12;102147.97;;;-4.02;100.00
50380;BME280;37474;59.468;18.040;2023-01-28T00:15:40;102151.44;;;-4.00;100.00
50380;BME280;37474;59.468;18.040;2023-01-28T00:18:08;102147.09;;;-3.75;100.00
50380;BME280;37474;59.468;18.040;2023-01-28T00:20:36;102125.84;;;-3.79;100.00
50380;BME280;37474;59.468;18.040;2023-01-28T00:23:06;102132.53;;;-3.52;100.00
50380;BME280;37474;59.468;18.040;2023-01-28T00:25:33;102134.13;;;-3.56;100.00
50380;BME280;37474;59.468;18.040;2023-01-28T00:28:01;102128.66;;;-3.69;100.00
50380;BME280;37474;59.468;18.040;2023-01-28T00:30:29;102124.34;;;-3.72;100.00
50380;BME280;37474;59.468;18.040;2023-01-28T00:32:57;102117.41;;;-3.79;100.00
50380;BME280;37474;59.468;18.040;2023-01-28T00:35:25;102120.38;;;-3.92;100.00
50380;BME280;37474;59.468;18.040;2023-01-28T00:37:53;102111.00;;;-3.95;100.00
50380;BME280;37474;59.468;18.040;2023-01-28T00:40:22;102099.09;;;-3.99;100.00
50380;BME280;37474;59.468;18.040;2023-01-28T00:42:50;102103.41;;;-3.95;100.00
50380;BME280;37474;59.468;18.040;2023-01-28T00:45:17;102106.81;;;-3.94;100.00
50380;BME280;37474;59.468;18.040;2023-01-28T00:47:45;102093.72;;;-4.08;100.00
50380;BME280;37474;59.468;18.040;2023-01-28T00:50:14;102097.31;;;-4.02;100.00
50380;BME280;37474;59.468;18.040;2023-01-28T00:52:42;102099.13;;;-3.69;100.00
50380;BME280;37474;59.468;18.040;2023-01-28T00:55:10;102064.66;;;-3.92;100.00
50380;BME280;37474;59.468;18.040;2023-01-28T00:57:40;102085.06;;;-3.58;100.00
50380;BME280;37474;59.468;18.040;2023-01-28T01:00:09;102077.16;;;-3.38;100.00
50380;BME280;37474;59.468;18.040;2023-01-28T01:02:37;102061.59;;;-3.51;100.00
50380;BME280;37474;59.468;18.040;2023-01-28T01:05:07;102075.13;;;-3.50;100.00
50380;BME280;37474;59.468;18.040;2023-01-28T01:07:35;102076.41;;;-3.34;100.00
50380;BME280;37474;59.468;18.040;2023-01-28T01:10:09;102063.28;;;-3.51;100.00
50380;BME280;37474;59.468;18.040;2023-01-28T01:12:38;102064.25;;;-3.46;100.00
50380;BME280;37474;59.468;18.040;2023-01-28T01:15:08;102053.66;;;-3.33;100.00
50380;BME280;37474;59.468;18.040;2023-01-28T01:17:37;102056.28;;;-3.28;100.00
50380;BME280;37474;59.468;18.040;2023-01-28T01:20:07;102049.97;;;-3.44;100.00
50380;BME280;37474;59.468;18.040;2023-01-28T01:22:35;102052.28;;;-3.52;100.00
50380;BME280;37474;59.468;18.040;2023-01-28T01:25:05;102043.91;;;-3.49;100.00
50380;BME280;37474;59.468;18.040;2023-01-28T01:27:33;102027.16;;;-3.44;100.00
50380;BME280;37474;59.468;18.040;2023-01-28T01:30:01;102032.13;;;-3.47;100.00
50380;BME280;37474;59.468;18.040;2023-01-28T01:32:31;102027.19;;;-3.42;100.00
50380;BME280;37474;59.468;18.040;2023-01-28T01:35:00;102018.44;;;-3.54;100.00
50380;BME280;37474;59.468;18.040;2023-01-28T01:37:28;102025.63;;;-3.37;100.00
50380;BME280;37474;59.468;18.040;2023-01-28T01:39:56;102013.84;;;-3.35;100.00
50380;BME280;37474;59.468;18.040;2023-01-28T01:42:24;102013.78;;;-3.38;100.00
50380;BME280;37474;59.468;18.040;2023-01-28T01:44:55;102002.00;;;-3.36;100.00
50380;BME280;37474;59.468;18.040;2023-01-28T01:47:28;102001.59;;;-3.19;100.00
50380;BME280;37474;59.468;18.040;2023-01-28T01:50:02;102000.34;;;-3.34;100.00
50380;BME280;37474;59.468;18.040;2023-01-28T01:52:34;101997.88;;;-3.33;100.00
50380;BME280;37474;59.468;18.040;2023-01-28T01:55:06;101992.00;;;-3.30;100.00
50380;BME280;37474;59.468;18.040;2023-01-28T01:57:36;101988.78;;;-3.23;100.00
50380;BME280;37474;59.468;18.040;2023-01-28T02:00:07;101992.13;;;-3.57;100.00
50380;BME280;37474;59.468;18.040;2023-01-28T02:02:38;101971.25;;;-3.49;100.00
50380;BME280;37474;59.468;18.040;2023-01-28T02:05:10;101943.94;;;-3.59;100.00
50380;BME280;37474;59.468;18.040;2023-01-28T02:07:39;101964.38;;;-3.53;100.00
50380;BME280;37474;59.468;18.040;2023-01-28T02:10:09;101958.75;;;-3.74;100.00
50380;BME280;37474;59.468;18.040;2023-01-28T02:12:39;101961.97;;;-3.80;100.00
50380;BME280;37474;59.468;18.040;2023-01-28T02:15:12;101962.16;;;-3.72;100.00
50380;BME280;37474;59.468;18.040;2023-01-28T02:17:41;101942.22;;;-3.91;100.00
50380;BME280;37474;59.468;18.040;2023-01-28T02:20:12;101920.91;;;-4.00;100.00
50380;BME280;37474;59.468;18.040;2023-01-28T02:25:59;101929.03;;;-3.80;100.00
50380;BME280;37474;59.468;18.040;2023-01-28T02:28:33;101914.66;;;-3.81;100.00
50380;BME280;37474;59.468;18.040;2023-01-28T02:31:08;101916.69;;;-3.67;100.00
50380;BME280;37474;59.468;18.040;2023-01-28T02:33:40;101903.78;;;-3.77;100.00
50380;BME280;37474;59.468;18.040;2023-01-28T02:36:16;101887.88;;;-3.71;100.00
50380;BME280;37474;59.468;18.040;2023-01-28T02:38:49;101901.31;;;-3.74;100.00
50380;BME280;37474;59.468;18.040;2023-01-28T02:41:24;101889.78;;;-3.62;100.00
50380;BME280;37474;59.468;18.040;2023-01-28T02:43:55;101888.34;;;-3.53;100.00
50380;BME280;37474;59.468;18.040;2023-01-28T02:46:34;101865.13;;;-3.68;100.00
50380;BME280;37474;59.468;18.040;2023-01-28T02:49:23;101874.06;;;-3.49;100.00
50380;BME280;37474;59.468;18.040;2023-01-28T02:52:02;101876.22;;;-3.30;100.00
50380;BME280;37474;59.468;18.040;2023-01-28T02:54:41;101873.13;;;-3.53;100.00
50380;BME280;37474;59.468;18.040;2023-01-28T02:57:18;101868.16;;;-3.50;100.00
50380;BME280;37474;59.468;18.040;2023-01-28T02:59:53;101865.91;;;-3.36;100.00
50380;BME280;37474;59.468;18.040;2023-01-28T03:02:29;101860.13;;;-3.30;100.00
50380;BME280;37474;59.468;18.040;2023-01-28T03:05:01;101859.03;;;-3.41;100.00
50380;BME280;37474;59.468;18.040;2023-01-28T03:07:33;101854.69;;;-3.46;100.00
50380;BME280;37474;59.468;18.040;2023-01-28T03:10:05;101856.66;;;-3.34;100.00
50380;BME280;37474;59.468;18.040;2023-01-28T03:12:34;101837.19;;;-3.36;100.00
50380;BME280;37474;59.468;18.040;2023-01-28T03:15:25;101833.50;;;-3.49;100.00
50380;BME280;37474;59.468;18.040;2023-01-28T03:18:14;101837.09;;;-3.39;100.00
50380;BME280;37474;59.468;18.040;2023-01-28T03:21:04;101844.69;;;-3.39;100.00
50380;BME280;37474;59.468;18.040;2023-01-28T03:23:55;101838.00;;;-3.37;100.00
50380;BME280;37474;59.468;18.040;2023-01-28T03:26:47;101827.25;;;-3.27;100.00
50380;BME280;37474;59.468;18.040;2023-01-28T03:29:39;101829.97;;;-3.18;100.00
50380;BME280;37474;59.468;18.040;2023-01-28T03:32:28;101802.06;;;-3.20;100.00
50380;BME280;37474;59.468;18.040;2023-01-28T03:35:15;101818.13;;;-3.19;100.00
50380;BME280;37474;59.468;18.040;2023-01-28T03:38:03;101804.81;;;-3.10;100.00
50380;BME280;37474;59.468;18.040;2023-01-28T03:40:49;101772.59;;;-3.13;100.00
50380;BME280;37474;59.468;18.040;2023-01-28T03:43:17;101805.41;;;-2.81;100.00
50380;BME280;37474;59.468;18.040;2023-01-28T03:45:45;101800.16;;;-2.89;100.00
50380;BME280;37474;59.468;18.040;2023-01-28T03:48:19;101799.34;;;-2.88;100.00
50380;BME280;37474;59.468;18.040;2023-01-28T03:50:47;101796.97;;;-2.80;100.00
50380;BME280;37474;59.468;18.040;2023-01-28T03:53:16;101793.47;;;-2.85;100.00
50380;BME280;37474;59.468;18.040;2023-01-28T03:55:46;101764.06;;;-2.77;100.00
50380;BME280;37474;59.468;18.040;2023-01-28T03:58:15;101778.91;;;-2.52;100.00
50380;BME280;37474;59.468;18.040;2023-01-28T04:00:43;101765.25;;;-2.58;100.00
50380;BME280;37474;59.468;18.040;2023-01-28T04:03:12;101758.81;;;-2.40;100.00
50380;BME280;37474;59.468;18.040;2023-01-28T04:05:45;101753.84;;;-2.33;100.00
50380;BME280;37474;59.468;18.040;2023-01-28T04:08:13;101750.50;;;-2.31;100.00
50380;BME280;37474;59.468;18.040;2023-01-28T04:10:41;101712.41;;;-2.31;100.00
50380;BME280;37474;59.468;18.040;2023-01-28T04:13:09;101731.16;;;-2.23;100.00
50380;BME280;37474;59.468;18.040;2023-01-28T04:15:39;101738.88;;;-2.17;100.00
50380;BME280;37474;59.468;18.040;2023-01-28T04:18:06;101734.72;;;-2.13;100.00
50380;BME280;37474;59.468;18.040;2023-01-28T04:20:34;101733.88;;;-2.12;100.00
50380;BME280;37474;59.468;18.040;2023-01-28T04:23:04;101739.38;;;-1.88;100.00
50380;BME280;37474;59.468;18.040;2023-01-28T04:25:32;101720.56;;;-1.99;100.00
50380;BME280;37474;59.468;18.040;2023-01-28T04:28:00;101725.16;;;-1.76;100.00
50380;BME280;37474;59.468;18.040;2023-01-28T04:30:28;101710.59;;;-1.87;100.00
50380;BME280;37474;59.468;18.040;2023-01-28T04:32:57;101686.88;;;-1.86;100.00
50380;BME280;37474;59.468;18.040;2023-01-28T04:35:24;101677.53;;;-1.88;100.00
50380;BME280;37474;59.468;18.040;2023-01-28T04:37:52;101692.19;;;-1.72;100.00
50380;BME280;37474;59.468;18.040;2023-01-28T04:40:21;101691.34;;;-1.71;100.00
50380;BME280;37474;59.468;18.040;2023-01-28T04:42:53;101686.41;;;-1.60;100.00
50380;BME280;37474;59.468;18.040;2023-01-28T04:45:21;101683.88;;;-1.58;100.00
50380;BME280;37474;59.468;18.040;2023-01-28T04:47:49;101672.28;;;-1.38;100.00
50380;BME280;37474;59.468;18.040;2023-01-28T04:50:17;101670.59;;;-1.38;100.00
50380;BME280;37474;59.468;18.040;2023-01-28T04:52:45;101659.50;;;-1.43;100.00
50380;BME280;37474;59.468;18.040;2023-01-28T04:55:13;101671.53;;;-1.31;100.00
50380;BME280;37474;59.468;18.040;2023-01-28T04:57:43;101669.09;;;-1.20;100.00
50380;BME280;37474;59.468;18.040;2023-01-28T05:00:11;101658.94;;;-1.19;100.00
50380;BME280;37474;59.468;18.040;2023-01-28T05:02:39;101656.47;;;-1.13;100.00
50380;BME280;37474;59.468;18.040;2023-01-28T05:05:07;101630.94;;;-1.20;100.00
50380;BME280;37474;59.468;18.040;2023-01-28T05:07:35;101639.53;;;-1.11;100.00
50380;BME280;37474;59.468;18.040;2023-01-28T05:10:04;101619.03;;;-1.23;100.00
50380;BME280;37474;59.468;18.040;2023-01-28T05:12:32;101635.31;;;-1.07;100.00
50380;BME280;37474;59.468;18.040;2023-01-28T05:15:01;101620.09;;;-1.01;100.00
50380;BME280;37474;59.468;18.040;2023-01-28T05:17:29;101620.94;;;-1.05;100.00
50380;BME280;37474;59.468;18.040;2023-01-28T05:19:57;101621.78;;;-1.03;100.00
50380;BME280;37474;59.468;18.040;2023-01-28T05:22:25;101609.16;;;-0.94;100.00
50380;BME280;37474;59.468;18.040;2023-01-28T05:24:53;101617.72;;;-0.89;100.00
50380;BME280;37474;59.468;18.040;2023-01-28T05:27:21;101600.75;;;-0.87;100.00
50380;BME280;37474;59.468;18.040;2023-01-28T05:29:49;101601.66;;;-0.78;100.00
50380;BME280;37474;59.468;18.040;2023-01-28T05:32:18;101601.69;;;-0.74;100.00
50380;BME280;37474;59.468;18.040;2023-01-28T05:34:46;101607.69;;;-0.70;100.00
50380;BME280;37474;59.468;18.040;2023-01-28T05:37:14;101598.41;;;-0.65;100.00
50380;BME280;37474;59.468;18.040;2023-01-28T05:39:42;101580.44;;;-0.79;100.00
50380;BME280;37474;59.468;18.040;2023-01-28T05:42:10;101603.44;;;-0.68;100.00
50380;BME280;37474;59.468;18.040;2023-01-28T05:44:38;101593.25;;;-0.68;100.00
50380;BME280;37474;59.468;18.040;2023-01-28T05:47:06;101593.34;;;-0.58;100.00
50380;BME280;37474;59.468;18.040;2023-01-28T05:49:35;101576.41;;;-0.54;100.00
50380;BME280;37474;59.468;18.040;2023-01-28T05:52:03;101578.91;;;-0.59;100.00
50380;BME280;37474;59.468;18.040;2023-01-28T05:54:31;101581.47;;;-0.60;100.00
50380;BME280;37474;59.468;18.040;2023-01-28T05:56:58;101574.72;;;-0.52;100.00
50380;BME280;37474;59.468;18.040;2023-01-28T05:59:26;101585.66;;;-0.62;100.00
50380;BME280;37474;59.468;18.040;2023-01-28T06:01:54;101579.72;;;-0.61;100.00
50380;BME280;37474;59.468;18.040;2023-01-28T06:04:22;101589.91;;;-0.63;100.00
50380;BME280;37474;59.468;18.040;2023-01-28T06:06:51;101586.41;;;-0.75;100.00
50380;BME280;37474;59.468;18.040;2023-01-28T06:09:19;101586.44;;;-0.72;100.00
50380;BME280;37474;59.468;18.040;2023-01-28T06:11:47;101595.72;;;-0.79;100.00
50380;BME280;37474;59.468;18.040;2023-01-28T06:14:15;101592.38;;;-0.73;100.00
50380;BME280;37474;59.468;18.040;2023-01-28T06:16:43;101584.72;;;-0.76;100.00
50380;BME280;37474;59.468;18.040;2023-01-28T06:19:11;101578.88;;;-0.66;100.00
50380;BME280;37474;59.468;18.040;2023-01-28T06:21:39;101590.72;;;-0.70;100.00
50380;BME280;37474;59.468;18.040;2023-01-28T06:24:11;101588.16;;;-0.68;100.00
50380;BME280;37474;59.468;18.040;2023-01-28T06:26:39;101569.31;;;-0.92;100.00
50380;BME280;37474;59.468;18.040;2023-01-28T06:29:07;101589.06;;;-0.65;100.00
50380;BME280;37474;59.468;18.040;2023-01-28T06:31:36;101585.56;;;-0.73;100.00
50380;BME280;37474;59.468;18.040;2023-01-28T06:34:04;101591.56;;;-0.68;100.00
50380;BME280;37474;59.468;18.040;2023-01-28T06:36:32;101591.53;;;-0.74;100.00
50380;BME280;37474;59.468;18.040;2023-01-28T06:38:59;101584.63;;;-0.87;100.00
50380;BME280;37474;59.468;18.040;2023-01-28T06:41:29;101582.19;;;-0.73;100.00
50380;BME280;37474;59.468;18.040;2023-01-28T06:43:57;101581.28;;;-0.83;100.00
50380;BME280;37474;59.468;18.040;2023-01-28T06:46:25;101570.25;;;-0.79;100.00
50380;BME280;37474;59.468;18.040;2023-01-28T06:48:52;101560.91;;;-0.82;100.00
50380;BME280;37474;59.468;18.040;2023-01-28T06:51:20;101571.09;;;-0.78;100.00
50380;BME280;37474;59.468;18.040;2023-01-28T06:53:48;101565.13;;;-0.84;100.00
50380;BME280;37474;59.468;18.040;2023-01-28T06:56:16;101562.56;;;-0.84;100.00
50380;BME280;37474;59.468;18.040;2023-01-28T06:58:45;101564.25;;;-0.86;100.00
50380;BME280;37474;59.468;18.040;2023-01-28T07:01:13;101558.38;;;-0.78;100.00
50380;BME280;37474;59.468;18.040;2023-01-28T07:03:41;101552.38;;;-0.87;100.00
50380;BME280;37474;59.468;18.040;2023-01-28T07:06:09;101545.56;;;-0.89;100.00
50380;BME280;37474;59.468;18.040;2023-01-28T07:08:37;101549.00;;;-0.84;100.00
50380;BME280;37474;59.468;18.040;2023-01-28T07:11:07;101546.53;;;-0.73;100.00
50380;BME280;37474;59.468;18.040;2023-01-28T07:13:35;101534.56;;;-0.84;100.00
50380;BME280;37474;59.468;18.040;2023-01-28T07:16:05;101548.94;;;-0.90;100.00
50380;BME280;37474;59.468;18.040;2023-01-28T07:18:33;101549.84;;;-0.87;100.00
50380;BME280;37474;59.468;18.040;2023-01-28T07:21:01;101543.91;;;-0.86;100.00
50380;BME280;37474;59.468;18.040;2023-01-28T07:23:28;101544.78;;;-0.82;100.00
50380;BME280;37474;59.468;18.040;2023-01-28T07:26:00;101549.88;;;-0.79;100.00
50380;BME280;37474;59.468;18.040;2023-01-28T07:28:28;101554.13;;;-0.83;100.00
50380;BME280;37474;59.468;18.040;2023-01-28T07:30:56;101548.22;;;-0.75;100.00
50380;BME280;37474;59.468;18.040;2023-01-28T07:33:25;101523.53;;;-0.86;100.00
50380;BME280;37474;59.468;18.040;2023-01-28T07:35:53;101552.44;;;-0.81;100.00
50380;BME280;37474;59.468;18.040;2023-01-28T07:38:21;101549.84;;;-0.84;100.00
50380;BME280;37474;59.468;18.040;2023-01-28T07:40:49;101534.56;;;-0.88;100.00
50380;BME280;37474;59.468;18.040;2023-01-28T07:43:17;101537.16;;;-0.79;100.00
50380;BME280;37474;59.468;18.040;2023-01-28T07:45:45;101532.06;;;-0.79;100.00
50380;BME280;37474;59.468;18.040;2023-01-28T07:48:14;101538.94;;;-0.70;100.00
50380;BME280;37474;59.468;18.040;2023-01-28T07:50:43;101533.78;;;-0.76;100.00
50380;BME280;37474;59.468;18.040;2023-01-28T07:53:14;101525.31;;;-0.75;100.00
50380;BME280;37474;59.468;18.040;2023-01-28T07:55:42;101525.41;;;-0.63;100.00
50380;BME280;37474;59.468;18.040;2023-01-28T07:58:10;101503.25;;;-0.76;100.00
50380;BME280;37474;59.468;18.040;2023-01-28T08:00:38;101512.66;;;-0.66;100.00
50380;BME280;37474;59.468;18.040;2023-01-28T08:03:10;101500.75;;;-0.69;100.00
50380;BME280;37474;59.468;18.040;2023-01-28T08:05:41;101499.94;;;-0.65;100.00
50380;BME280;37474;59.468;18.040;2023-01-28T08:08:12;101489.78;;;-0.59;100.00
50380;BME280;37474;59.468;18.040;2023-01-28T08:10:40;101472.81;;;-0.58;100.00
50380;BME280;37474;59.468;18.040;2023-01-28T08:13:10;101483.00;;;-0.58;100.00
50380;BME280;37474;59.468;18.040;2023-01-28T08:15:38;101464.31;;;-0.60;100.00
50380;BME280;37474;59.468;18.040;2023-01-28T08:18:08;101460.88;;;-0.62;100.00
50380;BME280;37474;59.468;18.040;2023-01-28T08:20:39;101479.63;;;-0.54;100.00
50380;BME280;37474;59.468;18.040;2023-01-28T08:23:11;101483.91;;;-0.50;100.00
50380;BME280;37474;59.468;18.040;2023-01-28T08:25:40;101494.13;;;-0.39;100.00
50380;BME280;37474;59.468;18.040;2023-01-28T08:28:09;101481.28;;;-0.56;100.00
50380;BME280;37474;59.468;18.040;2023-01-28T08:30:37;101477.13;;;-0.48;100.00
50380;BME280;37474;59.468;18.040;2023-01-28T08:33:06;101464.44;;;-0.36;100.00
50380;BME280;37474;59.468;18.040;2023-01-28T08:35:34;101460.97;;;-0.47;100.00
50380;BME280;37474;59.468;18.040;2023-01-28T08:38:04;101472.91;;;-0.41;100.00
50380;BME280;37474;59.468;18.040;2023-01-28T08:40:34;101458.44;;;-0.50;100.00
50380;BME280;37474;59.468;18.040;2023-01-28T08:43:02;101469.47;;;-0.46;100.00
50380;BME280;37474;59.468;18.040;2023-01-28T08:45:30;101449.91;;;-0.54;100.00
50380;BME280;37474;59.468;18.040;2023-01-28T08:48:00;101464.38;;;-0.46;100.00
50380;BME280;37474;59.468;18.040;2023-01-28T08:50:30;101464.47;;;-0.33;100.00
50380;BME280;37474;59.468;18.040;2023-01-28T08:53:00;101478.09;;;-0.28;100.00
50380;BME280;37474;59.468;18.040;2023-01-28T08:55:28;101492.50;;;-0.33;100.00
50380;BME280;37474;59.468;18.040;2023-01-28T08:58:01;101479.78;;;-0.23;100.00
50380;BME280;37474;59.468;18.040;2023-01-28T09:00:29;101459.41;;;-0.23;100.00
50380;BME280;37474;59.468;18.040;2023-01-28T09:02:57;101450.06;;;-0.17;100.00
50380;BME280;37474;59.468;18.040;2023-01-28T09:05:24;101444.97;;;-0.18;100.00
50380;BME280;37474;59.468;18.040;2023-01-28T09:07:52;101441.59;;;-0.11;100.00
50380;BME280;37474;59.468;18.040;2023-01-28T09:10:20;101432.31;;;-0.05;100.00
50380;BME280;37474;59.468;18.040;2023-01-28T09:12:48;101443.38;;;0.02;100.00
50380;BME280;37474;59.468;18.040;2023-01-28T09:15:17;101430.59;;;-0.01;100.00
50380;BME280;37474;59.468;18.040;2023-01-28T09:17:45;101424.69;;;0.08;100.00
50380;BME280;37474;59.468;18.040;2023-01-28T09:20:13;101428.91;;;-0.01;100.00
50380;BME280;37474;59.468;18.040;2023-01-28T09:22:42;101424.66;;;-0.03;100.00
50380;BME280;37474;59.468;18.040;2023-01-28T09:25:10;101418.72;;;-0.04;100.00
50380;BME280;37474;59.468;18.040;2023-01-28T09:27:37;101405.91;;;-0.20;100.00
50380;BME280;37474;59.468;18.040;2023-01-28T09:30:06;101421.22;;;-0.16;100.00
50380;BME280;37474;59.468;18.040;2023-01-28T09:32:37;101394.09;;;0.02;100.00
50380;BME280;37474;59.468;18.040;2023-01-28T09:35:05;101406.78;;;-0.06;100.00
50380;BME280;37474;59.468;18.040;2023-01-28T09:37:33;101393.22;;;-0.02;100.00
50380;BME280;37474;59.468;18.040;2023-01-28T09:40:01;101386.44;;;0.09;100.00
50380;BME280;37474;59.468;18.040;2023-01-28T09:42:41;101400.06;;;0.14;100.00
50380;BME280;37474;59.468;18.040;2023-01-28T09:45:16;101377.94;;;0.10;100.00
50380;BME280;37474;59.468;18.040;2023-01-28T09:47:50;101390.72;;;0.13;100.00
50380;BME280;37474;59.468;18.040;2023-01-28T09:50:23;101386.47;;;0.31;100.00
50380;BME280;37474;59.468;18.040;2023-01-28T09:52:55;101386.50;;;0.29;100.00
50380;BME280;37474;59.468;18.040;2023-01-28T09:55:30;101389.06;;;0.46;100.00
50380;BME280;37474;59.468;18.040;2023-01-28T09:57:59;101382.22;;;0.49;100.00
50380;BME280;37474;59.468;18.040;2023-01-28T10:00:31;101388.19;;;0.55;100.00
50380;BME280;37474;59.468;18.040;2023-01-28T10:03:21;101388.19;;;0.65;100.00
50380;BME280;37474;59.468;18.040;2023-01-28T10:05:55;101389.88;;;0.60;100.00
50380;BME280;37474;59.468;18.040;2023-01-28T10:08:40;101349.94;;;0.35;100.00
50380;BME280;37474;59.468;18.040;2023-01-28T10:11:19;101372.03;;;0.63;100.00
50380;BME280;37474;59.468;18.040;2023-01-28T10:13:55;101370.34;;;0.70;100.00
50380;BME280;37474;59.468;18.040;2023-01-28T10:16:28;101358.41;;;0.76;100.00
50380;BME280;37474;59.468;18.040;2023-01-28T10:19:06;101355.84;;;0.87;100.00
50380;BME280;37474;59.468;18.040;2023-01-28T10:21:46;101350.75;;;0.92;100.00
50380;BME280;37474;59.468;18.040;2023-01-28T10:24:17;101322.69;;;0.84;100.00
50380;BME280;37474;59.468;18.040;2023-01-28T10:26:45;101330.31;;;0.92;100.00
50380;BME280;37474;59.468;18.040;2023-01-28T10:29:16;101332.03;;;0.87;100.00
50380;BME280;37474;59.468;18.040;2023-01-28T10:31:51;101302.28;;;0.70;100.00
50380;BME280;37474;59.468;18.040;2023-01-28T10:34:21;101310.78;;;0.80;100.00
50380;BME280;37474;59.468;18.040;2023-01-28T10:36:50;101293.81;;;0.67;100.00
50380;BME280;37474;59.468;18.040;2023-01-28T10:39:20;101313.31;;;0.83;100.00
50380;BME280;37474;59.468;18.040;2023-01-28T10:41:50;101321.81;;;0.81;100.00
50380;BME280;37474;59.468;18.040;2023-01-28T10:44:30;101304.00;;;0.59;100.00
50380;BME280;37474;59.468;18.040;2023-01-28T10:47:01;101319.28;;;0.84;100.00
50380;BME280;37474;59.468;18.040;2023-01-28T10:49:37;101307.38;;;0.81;100.00
50380;BME280;37474;59.468;18.040;2023-01-28T10:52:11;101308.25;;;0.74;100.00
50380;BME280;37474;59.468;18.040;2023-01-28T10:54:39;101296.31;;;0.76;100.00
50380;BME280;37474;59.468;18.040;2023-01-28T10:57:10;101320.09;;;0.89;100.00
50380;BME280;37474;59.468;18.040;2023-01-28T10:59:39;101319.25;;;0.97;100.00
50380;BME280;37474;59.468;18.040;2023-01-28T11:02:23;101297.94;;;1.03;100.00
50380;BME280;37474;59.468;18.040;2023-01-28T11:05:03;101303.00;;;1.18;100.00
50380;BME280;37474;59.468;18.040;2023-01-28T11:07:32;101294.41;;;1.41;100.00
50380;BME280;37474;59.468;18.040;2023-01-28T11:10:00;101308.00;;;1.46;100.00
50380;BME280;37474;59.468;18.040;2023-01-28T11:12:29;101300.19;;;1.72;100.00
50380;BME280;37474;59.468;18.040;2023-01-28T11:14:59;101290.84;;;1.72;100.00
50380;BME280;37474;59.468;18.040;2023-01-28T11:17:30;101298.50;;;1.72;100.00
50380;BME280;37474;59.468;18.040;2023-01-28T11:20:08;101278.16;;;1.49;100.00
50380;BME280;37474;59.468;18.040;2023-01-28T11:22:38;101296.03;;;1.54;100.00
50380;BME280;37474;59.468;18.040;2023-01-28T11:25:15;101285.03;;;1.38;100.00
50380;BME280;37474;59.468;18.040;2023-01-28T11:27:46;101290.16;;;1.37;100.00
50380;BME280;37474;59.468;18.040;2023-01-28T11:30:15;101285.06;;;1.35;100.00
50380;BME280;37474;59.468;18.040;2023-01-28T11:32:54;101272.25;;;1.41;100.00
50380;BME280;37474;59.468;18.040;2023-01-28T11:35:25;101247.59;;;1.32;100.00
50380;BME280;37474;59.468;18.040;2023-01-28T11:37:56;101254.41;;;1.35;100.00
50380;BME280;37474;59.468;18.040;2023-01-28T11:40:25;101261.97;;;1.52;100.00
50380;BME280;37474;59.468;18.040;2023-01-28T11:42:54;101252.56;;;1.58;100.00
50380;BME280;37474;59.468;18.040;2023-01-28T11:45:38;101239.84;;;1.51;100.00
50380;BME280;37474;59.468;18.040;2023-01-28T11:48:18;101258.53;;;1.59;100.00
50380;BME280;37474;59.468;18.040;2023-01-28T11:50:57;101263.63;;;1.59;100.00
50380;BME280;37474;59.468;18.040;2023-01-28T11:53:43;101261.91;;;1.64;100.00
50380;BME280;37474;59.468;18.040;2023-01-28T11:56:35;101250.84;;;1.59;100.00
50380;BME280;37474;59.468;18.040;2023-01-28T11:59:20;101257.66;;;1.63;100.00
50380;BME280;37474;59.468;18.040;2023-01-28T12:01:56;101245.75;;;1.54;100.00
50380;BME280;37474;59.468;18.040;2023-01-28T12:04:44;101249.94;;;1.69;100.00
50380;BME280;37474;59.468;18.040;2023-01-28T12:07:28;101243.16;;;1.65;100.00
50380;BME280;37474;59.468;18.040;2023-01-28T12:10:07;101247.31;;;1.80;100.00
50380;BME280;37474;59.468;18.040;2023-01-28T12:12:52;101239.69;;;1.74;100.00
50380;BME280;37474;59.468;18.040;2023-01-28T12:18:29;101236.28;;;1.70;100.00
50380;BME280;37474;59.468;18.040;2023-01-28T12:21:03;101249.03;;;1.78;100.00
50380;BME280;37474;59.468;18.040;2023-01-28T12:23:58;101208.28;;;1.58;100.00
50380;BME280;37474;59.468;18.040;2023-01-28T12:26:35;101232.13;;;1.57;100.00
50380;BME280;37474;59.468;18.040;2023-01-28T12:29:17;101250.78;;;1.70;100.00
50380;BME280;37474;59.468;18.040;2023-01-28T12:32:12;101241.44;;;1.64;100.00
50380;BME280;37474;59.468;18.040;2023-01-28T12:37:57;101249.97;;;1.68;100.00
50380;BME280;37474;59.468;18.040;2023-01-28T12:40:48;101246.56;;;1.64;100.00
50380;BME280;37474;59.468;18.040;2023-01-28T12:43:21;101221.91;;;1.54;100.00
50380;BME280;37474;59.468;18.040;2023-01-28T12:45:54;101233.75;;;1.70;100.00
50380;BME280;37474;59.468;18.040;2023-01-28T12:48:28;101232.91;;;1.68;100.00
50380;BME280;37474;59.468;18.040;2023-01-28T12:51:03;101233.88;;;1.52;100.00
50380;BME280;37474;59.468;18.040;2023-01-28T12:53:37;101210.03;;;1.48;100.00
50380;BME280;37474;59.468;18.040;2023-01-28T12:56:13;101222.78;;;1.56;100.00
50380;BME280;37474;59.468;18.040;2023-01-28T12:58:47;101232.09;;;1.60;100.00
50380;BME280;37474;59.468;18.040;2023-01-28T13:01:20;101232.97;;;1.57;100.00
50380;BME280;37474;59.468;18.040;2023-01-28T13:03:54;101234.63;;;1.68;100.00